Time;durP1;ratioP1;P1;durP2;ratioP2;P2;SDS_P1;SDS_P2;PMS_P1;PMS_P2;Temp;Humidity;BMP_temperature;BMP_pressure;BME280_temperature;BME280_humidity;BME280_pressure;Samples;Min_cycle;Max_cycle;Signal;HPM_P1;HPM_P2
2021/10/23 00:00:41;;;;;;;18.25;14.15;;;15.80;90.80;;;;;;5036131;28;20029;-71
2021/10/23 00:03:07;;;;;;;17.60;14.70;;;15.80;90.90;;;;;;5036332;28;20506;-70
2021/10/23 00:05:32;;;;;;;19.55;13.98;;;15.80;90.90;;;;;;5036273;28;20481;-71
2021/10/23 00:07:58;;;;;;;16.02;13.80;;;15.80;90.90;;;;;;5035927;28;20013;-71
2021/10/23 00:10:24;;;;;;;21.23;14.32;;;15.80;90.90;;;;;;5036076;28;20026;-71
2021/10/23 00:12:50;;;;;;;19.83;12.88;;;15.80;90.90;;;;;;5036338;28;20021;-70
2021/10/23 00:15:15;;;;;;;16.83;11.85;;;15.80;90.90;;;;;;5036152;28;20393;-71
2021/10/23 00:17:41;;;;;;;22.02;11.75;;;15.80;90.90;;;;;;5035832;28;20032;-71
2021/10/23 00:20:07;;;;;;;14.85;9.40;;;15.80;90.80;;;;;;5035917;28;20112;-70
2021/10/23 00:22:33;;;;;;;18.27;10.60;;;15.70;90.80;;;;;;5036166;28;20036;-71
2021/10/23 00:25:00;;;;;;;12.63;10.35;;;15.70;90.80;;;;;;5036008;28;20029;-71
2021/10/23 00:27:26;;;;;;;16.80;9.88;;;15.70;90.90;;;;;;5035764;28;20025;-71
2021/10/23 00:29:52;;;;;;;16.60;9.93;;;15.70;90.90;;;;;;5035729;28;20017;-70
2021/10/23 00:32:18;;;;;;;18.23;10.65;;;15.70;90.90;;;;;;5036084;28;20393;-71
2021/10/23 00:34:44;;;;;;;16.17;10.27;;;15.70;90.90;;;;;;5035183;28;20030;-70
2021/10/23 00:37:10;;;;;;;15.75;12.18;;;15.70;90.90;;;;;;5035518;28;20512;-71
2021/10/23 00:39:35;;;;;;;17.23;13.98;;;15.70;90.80;;;;;;5035487;28;20401;-71
2021/10/23 00:42:02;;;;;;;16.30;13.57;;;15.70;90.80;;;;;;5035479;28;20127;-70
2021/10/23 00:44:39;;;;;;;27.38;14.38;;;15.60;90.70;;;;;;5035560;28;20037;-70
2021/10/23 00:47:19;;;;;;;20.67;13.75;;;15.60;90.80;;;;;;5035315;28;20398;-70
2021/10/23 00:49:47;;;;;;;19.92;13.00;;;15.60;90.80;;;;;;5035125;28;20017;-71
2021/10/23 00:52:13;;;;;;;20.67;13.38;;;15.60;90.80;;;;;;5035415;28;20030;-70
2021/10/23 00:54:39;;;;;;;19.48;13.60;;;15.60;90.80;;;;;;5035225;28;20025;-71
2021/10/23 00:57:05;;;;;;;16.35;11.32;;;15.60;90.80;;;;;;5035208;28;20121;-70
2021/10/23 00:59:34;;;;;;;16.58;11.90;;;15.60;90.80;;;;;;5032265;28;20120;-70
2021/10/23 01:02:01;;;;;;;21.48;13.00;;;15.60;90.80;;;;;;5030616;28;20049;-70
2021/10/23 01:04:27;;;;;;;23.00;13.27;;;15.60;90.60;;;;;;5033184;28;20036;-71
2021/10/23 01:06:54;;;;;;;20.27;13.90;;;15.50;90.60;;;;;;5034798;28;20053;-70
2021/10/23 01:09:20;;;;;;;15.73;13.00;;;15.50;90.70;;;;;;5035082;28;20040;-71
2021/10/23 01:11:48;;;;;;;17.27;13.65;;;15.50;90.70;;;;;;5034945;28;20099;-71
2021/10/23 01:14:18;;;;;;;19.90;14.02;;;15.40;90.60;;;;;;5034411;28;20033;-70
2021/10/23 01:16:45;;;;;;;17.77;13.43;;;15.40;90.60;;;;;;5033406;28;20374;-71
2021/10/23 01:19:12;;;;;;;18.77;14.32;;;15.40;90.60;;;;;;5034805;28;20025;-70
2021/10/23 01:21:39;;;;;;;17.42;13.73;;;15.40;90.60;;;;;;5034466;28;20120;-70
2021/10/23 01:24:08;;;;;;;18.05;12.93;;;15.40;90.60;;;;;;5034667;28;20025;-71
2021/10/23 01:26:35;;;;;;;14.80;12.88;;;15.40;90.60;;;;;;5034732;28;20029;-70
2021/10/23 01:29:03;;;;;;;20.13;14.00;;;15.30;90.30;;;;;;5034329;28;20036;-70
2021/10/23 01:31:29;;;;;;;17.00;12.95;;;15.30;90.40;;;;;;5034177;28;20110;-70
2021/10/23 01:33:56;;;;;;;16.42;13.50;;;15.30;90.40;;;;;;5034371;28;20461;-71
2021/10/23 01:36:23;;;;;;;17.33;13.25;;;15.20;90.20;;;;;;5034017;28;20032;-70
2021/10/23 01:38:49;;;;;;;20.67;12.40;;;15.20;90.40;;;;;;5034035;28;20037;-70
2021/10/23 01:41:15;;;;;;;14.05;12.60;;;15.20;90.40;;;;;;5033810;28;20037;-71
2021/10/23 01:43:41;;;;;;;17.45;12.65;;;15.20;90.40;;;;;;5034042;28;20474;-70
2021/10/23 01:46:08;;;;;;;18.73;12.43;;;15.10;90.40;;;;;;5034024;28;20038;-71
2021/10/23 01:48:34;;;;;;;15.02;12.18;;;15.10;90.20;;;;;;5033375;28;20470;-70
2021/10/23 01:51:00;;;;;;;16.67;11.10;;;15.10;90.20;;;;;;5034011;28;20026;-70
2021/10/23 01:53:26;;;;;;;13.95;11.52;;;15.10;90.30;;;;;;5033911;28;20505;-70
2021/10/23 01:55:52;;;;;;;13.80;12.20;;;15.10;90.30;;;;;;5033987;28;20068;-70
2021/10/23 01:58:19;;;;;;;16.38;11.07;;;15.10;90.20;;;;;;5033644;28;20037;-70
2021/10/23 02:00:45;;;;;;;16.98;11.75;;;15.00;90.30;;;;;;5033908;28;20060;-71
2021/10/23 02:03:11;;;;;;;16.23;11.77;;;15.00;90.30;;;;;;5033763;28;20037;-71
2021/10/23 02:05:37;;;;;;;16.17;11.32;;;15.00;90.30;;;;;;5033720;28;20030;-71
2021/10/23 02:08:03;;;;;;;13.60;10.55;;;15.00;90.30;;;;;;5033864;28;20025;-70
2021/10/23 02:10:29;;;;;;;13.73;11.27;;;14.90;90.30;;;;;;5033985;28;20580;-71
2021/10/23 02:12:55;;;;;;;13.77;11.55;;;14.90;90.20;;;;;;5033812;28;20033;-71
2021/10/23 02:15:20;;;;;;;20.15;11.32;;;14.90;90.10;;;;;;5033464;28;20493;-70
2021/10/23 02:17:46;;;;;;;17.17;11.27;;;14.90;90.20;;;;;;5033726;28;20044;-70
2021/10/23 02:20:12;;;;;;;16.95;10.98;;;14.80;90.30;;;;;;5033717;28;20076;-71
2021/10/23 02:22:39;;;;;;;12.30;9.20;;;14.90;90.40;;;;;;5033740;28;20482;-71
2021/10/23 02:25:07;;;;;;;10.75;8.10;;;14.80;90.30;;;;;;5033517;28;20100;-71
2021/10/23 02:27:33;;;;;;;10.25;7.50;;;14.90;90.30;;;;;;5033459;28;20441;-71
2021/10/23 02:29:59;;;;;;;9.98;6.85;;;14.90;90.30;;;;;;5033584;28;20057;-71
2021/10/23 02:32:25;;;;;;;18.35;6.55;;;14.90;90.30;;;;;;5033769;28;20029;-71
2021/10/23 02:34:50;;;;;;;7.85;5.88;;;14.90;90.20;;;;;;5033338;28;20029;-71
2021/10/23 02:37:16;;;;;;;9.90;5.97;;;14.90;90.10;;;;;;5033351;28;20031;-71
2021/10/23 02:39:42;;;;;;;9.52;5.78;;;14.90;90.20;;;;;;5033296;28;20052;-71
2021/10/23 02:42:08;;;;;;;9.95;6.18;;;14.80;90.10;;;;;;5033147;28;20047;-71
2021/10/23 02:44:34;;;;;;;10.20;6.03;;;14.80;90.10;;;;;;5033337;28;20105;-70
2021/10/23 02:47:00;;;;;;;8.07;5.40;;;14.80;90.20;;;;;;5033349;28;20032;-71
2021/10/23 02:49:26;;;;;;;8.82;5.53;;;14.80;90.20;;;;;;5033212;28;20021;-71
2021/10/23 02:51:52;;;;;;;10.00;5.43;;;14.80;90.10;;;;;;5033267;28;20022;-71
2021/10/23 02:54:18;;;;;;;7.97;5.50;;;14.80;90.10;;;;;;5033072;28;20025;-70
2021/10/23 02:56:44;;;;;;;11.63;5.85;;;14.80;90.10;;;;;;5032986;28;20018;-72
2021/10/23 02:59:10;;;;;;;8.85;5.65;;;14.80;90.00;;;;;;5032692;28;20049;-71
2021/10/23 03:01:35;;;;;;;7.45;5.15;;;14.80;90.10;;;;;;5033014;28;20374;-71
2021/10/23 03:04:01;;;;;;;7.18;5.30;;;14.80;90.00;;;;;;5032996;28;20033;-71
2021/10/23 03:06:27;;;;;;;6.43;5.25;;;14.80;90.00;;;;;;5032972;28;20034;-70
2021/10/23 03:08:53;;;;;;;8.68;5.28;;;14.80;90.00;;;;;;5032994;28;20044;-70
2021/10/23 03:11:18;;;;;;;9.10;5.28;;;14.80;89.90;;;;;;5033233;28;20404;-70
2021/10/23 03:13:44;;;;;;;11.10;4.45;;;14.80;89.80;;;;;;5032827;28;20022;-70
2021/10/23 03:16:10;;;;;;;8.45;5.30;;;14.80;89.90;;;;;;5033190;28;20022;-71
2021/10/23 03:18:36;;;;;;;7.20;5.18;;;14.70;89.80;;;;;;5032830;28;20022;-71
2021/10/23 03:21:03;;;;;;;5.60;4.45;;;14.70;89.60;;;;;;5032716;28;20075;-70
2021/10/23 03:23:28;;;;;;;5.82;4.80;;;14.70;89.50;;;;;;5032820;28;20017;-71
2021/10/23 03:25:54;;;;;;;8.05;5.32;;;14.70;89.40;;;;;;5032785;28;20026;-71
2021/10/23 03:28:20;;;;;;;7.63;4.85;;;14.70;89.50;;;;;;5032926;28;20026;-71
2021/10/23 03:30:46;;;;;;;6.22;4.63;;;14.70;89.40;;;;;;5033085;28;20032;-70
2021/10/23 03:33:12;;;;;;;8.07;4.90;;;14.70;89.30;;;;;;5031718;28;20029;-70
2021/10/23 03:35:38;;;;;;;8.88;5.25;;;14.60;89.20;;;;;;5032687;28;20021;-71
2021/10/23 03:38:04;;;;;;;10.65;4.95;;;14.60;89.20;;;;;;5032598;28;20096;-69
2021/10/23 03:40:30;;;;;;;6.93;4.60;;;14.60;89.00;;;;;;5032703;28;20063;-71
2021/10/23 03:42:55;;;;;;;7.85;5.63;;;14.60;88.50;;;;;;5032787;28;20373;-70
2021/10/23 03:45:21;;;;;;;12.05;5.95;;;14.60;88.50;;;;;;5032593;28;20386;-70
2021/10/23 03:47:47;;;;;;;7.57;6.82;;;14.50;88.40;;;;;;5032562;28;20060;-70
2021/10/23 03:50:12;;;;;;;6.57;5.97;;;14.50;88.10;;;;;;5032941;28;20026;-70
2021/10/23 03:52:38;;;;;;;35.10;8.30;;;14.50;88.10;;;;;;5032704;28;20105;-70
2021/10/23 03:55:05;;;;;;;9.90;7.70;;;14.40;88.00;;;;;;5032479;28;20021;-72
2021/10/23 03:57:30;;;;;;;17.45;8.15;;;14.40;88.00;;;;;;5032409;28;20021;-70
2021/10/23 03:59:56;;;;;;;13.82;8.82;;;14.30;88.20;;;;;;5032409;28;20052;-70
2021/10/23 04:02:22;;;;;;;10.27;8.48;;;14.30;88.40;;;;;;5032568;28;20420;-70
2021/10/23 04:04:48;;;;;;;9.73;8.82;;;14.30;88.50;;;;;;5032556;28;20470;-71
2021/10/23 04:07:14;;;;;;;9.85;8.38;;;14.20;88.70;;;;;;5032259;28;20032;-70
2021/10/23 04:09:39;;;;;;;9.35;7.95;;;14.20;88.90;;;;;;5032611;28;20429;-70
2021/10/23 04:12:05;;;;;;;11.48;7.93;;;14.20;88.90;;;;;;5035771;28;20030;-70
2021/10/23 04:14:31;;;;;;;13.10;8.57;;;14.10;88.80;;;;;;5035913;28;20052;-70
2021/10/23 04:16:56;;;;;;;11.98;8.95;;;14.10;89.00;;;;;;5035836;28;20122;-70
2021/10/23 04:19:22;;;;;;;11.60;8.80;;;14.10;89.10;;;;;;5035912;28;20072;-70
2021/10/23 04:21:48;;;;;;;9.30;8.32;;;14.10;89.10;;;;;;5035826;28;20060;-70
2021/10/23 04:24:14;;;;;;;10.05;8.05;;;14.10;88.80;;;;;;5035723;28;20076;-71
2021/10/23 04:26:40;;;;;;;14.85;7.78;;;14.10;88.10;;;;;;5035962;28;20041;-71
2021/10/23 04:29:07;;;;;;;9.23;8.02;;;14.00;88.20;;;;;;5036022;28;20024;-70
2021/10/23 04:31:33;;;;;;;9.55;7.65;;;14.00;88.50;;;;;;5036007;28;20504;-70
2021/10/23 04:34:02;;;;;;;12.88;8.35;;;14.00;88.50;;;;;;5035590;28;20046;-70
2021/10/23 04:36:28;;;;;;;13.75;7.97;;;14.00;88.70;;;;;;5035551;28;20025;-71
2021/10/23 04:38:54;;;;;;;9.77;8.30;;;14.00;88.90;;;;;;5035548;28;20017;-70
2021/10/23 04:41:19;;;;;;;9.02;7.90;;;13.90;88.80;;;;;;5035637;28;20420;-70
2021/10/23 04:43:45;;;;;;;10.02;7.68;;;14.00;88.80;;;;;;5035334;28;20473;-70
2021/10/23 04:46:11;;;;;;;11.05;8.23;;;13.90;88.70;;;;;;5035471;28;20056;-70
2021/10/23 04:48:36;;;;;;;9.43;7.60;;;13.90;88.80;;;;;;5035331;28;20022;-70
2021/10/23 04:51:03;;;;;;;11.07;7.68;;;13.90;89.50;;;;;;5035333;28;20030;-70
2021/10/23 04:53:29;;;;;;;10.73;8.20;;;13.90;88.90;;;;;;5035186;28;20033;-71
2021/10/23 04:55:54;;;;;;;11.25;8.20;;;13.80;88.70;;;;;;5035170;28;20040;-70
2021/10/23 04:58:20;;;;;;;10.02;7.68;;;13.80;88.70;;;;;;5034966;28;20043;-70
2021/10/23 05:00:46;;;;;;;12.93;7.85;;;13.80;88.60;;;;;;5035088;28;20045;-71
2021/10/23 05:03:11;;;;;;;10.95;7.40;;;13.80;88.90;;;;;;5035241;28;20523;-70
2021/10/23 05:05:37;;;;;;;8.63;7.22;;;13.80;88.80;;;;;;5035072;28;20021;-70
2021/10/23 05:08:03;;;;;;;9.30;7.35;;;13.80;88.60;;;;;;5034741;28;20026;-70
2021/10/23 05:10:29;;;;;;;11.52;7.65;;;13.80;88.60;;;;;;5035049;28;20347;-70
2021/10/23 05:12:55;;;;;;;9.45;6.63;;;13.80;88.50;;;;;;5035049;28;20469;-71
2021/10/23 05:15:21;;;;;;;12.57;7.93;;;13.70;88.50;;;;;;5035088;28;20028;-71
2021/10/23 05:17:47;;;;;;;14.55;7.18;;;13.70;88.50;;;;;;5034426;28;20389;-70
2021/10/23 05:20:13;;;;;;;11.88;7.57;;;13.70;88.60;;;;;;5034787;28;20029;-71
2021/10/23 05:22:39;;;;;;;7.57;6.50;;;13.60;88.70;;;;;;5034801;28;20036;-71
2021/10/23 05:25:05;;;;;;;9.77;6.65;;;13.70;88.70;;;;;;5034721;28;20021;-71
2021/10/23 05:27:31;;;;;;;10.00;6.70;;;13.70;88.70;;;;;;5034816;28;20029;-71
2021/10/23 05:29:57;;;;;;;8.25;6.75;;;13.70;88.70;;;;;;5034471;28;20027;-71
2021/10/23 05:32:23;;;;;;;7.35;6.55;;;13.60;88.50;;;;;;5034370;28;20060;-71
2021/10/23 05:34:49;;;;;;;7.63;6.93;;;13.60;88.50;;;;;;5034533;28;20052;-72
2021/10/23 05:37:15;;;;;;;9.32;7.25;;;13.60;88.80;;;;;;5034213;28;20026;-71
2021/10/23 05:39:41;;;;;;;9.95;6.50;;;13.60;88.90;;;;;;5034583;28;20025;-71
2021/10/23 05:42:07;;;;;;;11.13;7.00;;;13.60;88.80;;;;;;5034344;28;20359;-71
2021/10/23 05:44:33;;;;;;;11.15;7.00;;;13.50;89.00;;;;;;5034491;28;20030;-72
2021/10/23 05:46:58;;;;;;;8.50;6.75;;;13.60;89.30;;;;;;5034272;28;20537;-72
2021/10/23 05:49:24;;;;;;;8.20;7.05;;;13.60;89.20;;;;;;5034195;28;20026;-70
2021/10/23 05:51:51;;;;;;;7.95;6.25;;;13.60;89.30;;;;;;5034113;28;20041;-71
2021/10/23 05:54:16;;;;;;;9.43;6.38;;;13.50;89.10;;;;;;5034110;28;20025;-70
2021/10/23 05:56:42;;;;;;;10.88;6.60;;;13.60;89.30;;;;;;5032422;28;20034;-71
2021/10/23 05:59:12;;;;;;;7.60;6.50;;;13.60;89.40;;;;;;5033812;28;20050;-70
2021/10/23 06:01:39;;;;;;;7.90;6.25;;;13.60;89.30;;;;;;5033981;28;20125;-70
2021/10/23 06:04:05;;;;;;;10.70;6.85;;;13.60;89.40;;;;;;5034021;28;20036;-70
2021/10/23 06:06:30;;;;;;;8.95;6.63;;;13.60;89.40;;;;;;5033848;28;20397;-70
2021/10/23 06:08:56;;;;;;;9.63;6.53;;;13.60;89.30;;;;;;5033629;28;20075;-70
2021/10/23 06:11:22;;;;;;;9.07;6.32;;;13.60;89.20;;;;;;5033629;28;20370;-70
2021/10/23 06:13:48;;;;;;;11.75;7.53;;;13.60;89.00;;;;;;5033859;28;20039;-70
2021/10/23 06:16:14;;;;;;;14.27;7.47;;;13.60;88.90;;;;;;5033770;28;20032;-71
2021/10/23 06:18:39;;;;;;;12.50;7.80;;;13.60;88.90;;;;;;5033490;28;20375;-70
2021/10/23 06:21:05;;;;;;;13.88;7.70;;;13.50;88.60;;;;;;5033560;28;20052;-71
2021/10/23 06:23:32;;;;;;;10.88;7.78;;;13.50;89.00;;;;;;5033305;28;20033;-70
2021/10/23 06:25:58;;;;;;;12.93;7.80;;;13.50;89.20;;;;;;5033396;28;20173;-70
2021/10/23 06:28:24;;;;;;;13.30;7.65;;;13.50;89.40;;;;;;5029631;28;20032;-71
2021/10/23 06:30:50;;;;;;;9.60;7.05;;;13.60;89.60;;;;;;5030941;28;20071;-71
2021/10/23 06:33:19;;;;;;;18.27;8.23;;;13.50;89.70;;;;;;5029965;28;20041;-71
2021/10/23 06:35:45;;;;;;;15.57;7.38;;;13.50;90.00;;;;;;5033057;28;20055;-71
2021/10/23 06:38:11;;;;;;;12.65;7.57;;;13.60;90.00;;;;;;5033131;28;20040;-70
2021/10/23 06:40:37;;;;;;;8.75;6.75;;;13.70;90.10;;;;;;5033417;28;20030;-70
2021/10/23 06:43:02;;;;;;;8.35;6.22;;;13.70;90.10;;;;;;5033364;28;20071;-69
2021/10/23 06:45:30;;;;;;;9.07;5.70;;;13.70;90.30;;;;;;5033308;28;20111;-70
2021/10/23 06:47:57;;;;;;;6.18;4.97;;;13.80;90.20;;;;;;5032986;28;20025;-70
2021/10/23 06:50:23;;;;;;;6.15;5.10;;;13.90;90.10;;;;;;5032935;28;20037;-70
2021/10/23 06:52:49;;;;;;;8.98;4.97;;;14.00;90.00;;;;;;5032992;28;20026;-70
2021/10/23 06:55:15;;;;;;;8.35;5.22;;;14.10;89.60;;;;;;5033456;28;20029;-71
2021/10/23 06:57:41;;;;;;;12.30;5.20;;;14.10;89.30;;;;;;5033294;28;20079;-70
2021/10/23 07:00:08;;;;;;;10.55;5.40;;;14.20;89.10;;;;;;5033115;28;20072;-70
2021/10/23 07:02:42;;;;;;;5.00;4.50;;;14.30;88.90;;;;;;5033009;28;20029;-70
2021/10/23 07:05:15;;;;;;;7.38;4.13;;;14.40;88.40;;;;;;5033159;28;20473;-71
2021/10/23 07:07:41;;;;;;;6.80;4.32;;;14.40;87.90;;;;;;5032494;28;20026;-70
2021/10/23 07:10:08;;;;;;;6.13;3.95;;;14.50;87.50;;;;;;5033151;28;20057;-70
2021/10/23 07:12:33;;;;;;;4.82;3.78;;;14.60;87.10;;;;;;5032826;28;20504;-71
2021/10/23 07:15:00;;;;;;;5.43;3.88;;;14.60;86.70;;;;;;5032864;28;20025;-71
2021/10/23 07:17:25;;;;;;;4.38;3.47;;;14.70;86.20;;;;;;5032843;28;20408;-70
2021/10/23 07:19:54;;;;;;;6.15;3.95;;;14.80;85.70;;;;;;5032755;28;20104;-70
2021/10/23 07:22:20;;;;;;;8.82;3.50;;;14.90;85.40;;;;;;5031690;28;20084;-70
2021/10/23 07:24:46;;;;;;;7.88;3.60;;;14.90;84.90;;;;;;5032913;28;20029;-70
2021/10/23 07:27:12;;;;;;;4.80;3.40;;;15.00;84.60;;;;;;5033041;28;20033;-71
2021/10/23 07:29:38;;;;;;;4.30;3.30;;;15.10;84.50;;;;;;5032859;28;20021;-71
2021/10/23 07:32:04;;;;;;;6.20;3.33;;;15.10;84.30;;;;;;5032880;28;20033;-70
2021/10/23 07:34:29;;;;;;;3.78;3.00;;;15.20;84.10;;;;;;5032819;28;20022;-70
2021/10/23 07:36:55;;;;;;;5.45;3.00;;;15.30;83.60;;;;;;5032523;28;20386;-71
2021/10/23 07:39:21;;;;;;;5.95;3.15;;;15.30;83.10;;;;;;5032909;28;20018;-70
2021/10/23 07:41:47;;;;;;;4.80;3.53;;;15.30;83.20;;;;;;5032763;28;20045;-70
2021/10/23 07:44:13;;;;;;;4.70;3.17;;;15.40;83.10;;;;;;5032892;28;20128;-71
2021/10/23 07:46:39;;;;;;;4.57;2.92;;;15.50;82.70;;;;;;5035499;28;20511;-70
2021/10/23 07:49:08;;;;;;;3.83;3.20;;;15.60;82.30;;;;;;5036500;28;20152;-70
2021/10/23 07:51:38;;;;;;;6.80;3.05;;;15.60;82.00;;;;;;5036540;28;20036;-70
2021/10/23 07:54:05;;;;;;;5.20;3.00;;;15.70;82.10;;;;;;5036565;28;20415;-70
2021/10/23 07:56:32;;;;;;;3.95;3.13;;;15.80;81.90;;;;;;5036654;28;20036;-70
2021/10/23 07:58:58;;;;;;;4.90;3.00;;;15.90;81.60;;;;;;5036335;28;20038;-71
2021/10/23 08:01:24;;;;;;;4.00;2.83;;;15.90;81.60;;;;;;5036309;28;20087;-70
2021/10/23 08:03:50;;;;;;;3.88;3.15;;;16.00;81.20;;;;;;5036383;28;20097;-70
2021/10/23 08:06:16;;;;;;;7.03;3.70;;;16.00;80.50;;;;;;5036362;28;20385;-70
2021/10/23 08:08:41;;;;;;;6.68;3.22;;;16.10;80.30;;;;;;5036353;28;20556;-70
2021/10/23 08:11:07;;;;;;;6.30;2.97;;;16.20;80.20;;;;;;5034788;28;20120;-70
2021/10/23 08:13:33;;;;;;;4.35;2.90;;;16.20;80.00;;;;;;5035901;28;20092;-71
2021/10/23 08:16:00;;;;;;;6.68;3.03;;;16.30;80.60;;;;;;5036209;28;20038;-71
2021/10/23 08:18:26;;;;;;;4.22;3.10;;;16.30;80.00;;;;;;5035880;28;20022;-71
2021/10/23 08:20:52;;;;;;;9.10;3.00;;;16.40;77.00;;;;;;5035714;28;20112;-71
2021/10/23 08:23:18;;;;;;;6.95;5.15;;;16.50;76.50;;;;;;5035814;28;20104;-71
2021/10/23 08:25:43;;;;;;;3.97;3.15;;;16.50;76.40;;;;;;5035917;28;20026;-71
2021/10/23 08:28:09;;;;;;;5.00;2.65;;;16.60;76.00;;;;;;5035781;28;20055;-71
2021/10/23 08:30:35;;;;;;;4.53;3.70;;;16.60;75.90;;;;;;5035697;28;20018;-70
2021/10/23 08:33:02;;;;;;;4.15;2.95;;;16.70;75.90;;;;;;5035666;28;20504;-71
2021/10/23 08:35:28;;;;;;;3.97;2.95;;;16.80;75.30;;;;;;5035779;28;20040;-71
2021/10/23 08:37:54;;;;;;;6.30;3.67;;;16.80;75.30;;;;;;5035801;28;20108;-70
2021/10/23 08:40:21;;;;;;;5.43;3.10;;;16.90;75.10;;;;;;5035474;28;20025;-71
2021/10/23 08:42:47;;;;;;;5.00;3.08;;;16.90;74.70;;;;;;5034255;28;20061;-71
2021/10/23 08:45:15;;;;;;;3.85;3.03;;;16.90;74.20;;;;;;5035645;28;20104;-70
2021/10/23 08:47:44;;;;;;;7.88;3.05;;;17.00;74.20;;;;;;5035485;28;20108;-71
2021/10/23 08:50:14;;;;;;;4.88;3.20;;;17.10;73.90;;;;;;5035207;28;20470;-71
2021/10/23 08:52:43;;;;;;;5.35;3.17;;;17.10;72.80;;;;;;5035509;28;20026;-70
2021/10/23 08:55:09;;;;;;;5.38;3.13;;;17.20;73.10;;;;;;5035284;28;20144;-70
2021/10/23 08:57:35;;;;;;;4.45;3.28;;;17.30;72.90;;;;;;5034890;28;20471;-70
2021/10/23 09:00:01;;;;;;;6.75;2.72;;;17.30;72.20;;;;;;5035199;28;20505;-70
2021/10/23 09:02:28;;;;;;;4.07;2.90;;;17.30;72.40;;;;;;5035438;28;20075;-70
2021/10/23 09:04:55;;;;;;;4.95;3.05;;;17.40;72.70;;;;;;5034993;28;20109;-70
2021/10/23 09:07:24;;;;;;;3.63;2.53;;;17.40;71.60;;;;;;5034991;28;20025;-70
2021/10/23 09:10:05;;;;;;;3.15;2.25;;;17.50;70.60;;;;;;5035134;28;20028;-71
2021/10/23 09:12:33;;;;;;;7.03;2.40;;;17.60;70.60;;;;;;5034979;28;20026;-70
2021/10/23 09:15:08;;;;;;;3.95;2.25;;;17.60;69.90;;;;;;5034858;28;20017;-70
2021/10/23 09:17:34;;;;;;;4.72;2.13;;;17.70;69.80;;;;;;5034924;28;20030;-70
2021/10/23 09:20:09;;;;;;;4.45;2.40;;;17.70;69.20;;;;;;5034882;28;20021;-71
2021/10/23 09:22:38;;;;;;;3.13;2.10;;;17.70;68.90;;;;;;5034828;28;20037;-71
2021/10/23 09:25:30;;;;;;;3.13;1.92;;;17.70;68.50;;;;;;5034923;28;20056;-70
2021/10/23 09:28:12;;;;;;;3.95;2.20;;;17.70;68.30;;;;;;5034670;28;20021;-71
2021/10/23 09:30:44;;;;;;;4.70;2.35;;;17.60;67.90;;;;;;5034597;28;20028;-71
2021/10/23 09:33:15;;;;;;;3.45;2.30;;;17.60;68.50;;;;;;5034645;28;20104;-70
2021/10/23 09:35:43;;;;;;;5.70;2.40;;;17.60;68.30;;;;;;5034372;28;20417;-70
2021/10/23 09:38:13;;;;;;;3.55;2.08;;;17.60;68.60;;;;;;5034538;28;20044;-70
2021/10/23 09:40:43;;;;;;;4.97;2.47;;;17.70;69.00;;;;;;5034176;28;20033;-71
2021/10/23 09:43:15;;;;;;;2.38;2.05;;;17.70;68.50;;;;;;5034258;28;20508;-71
2021/10/23 09:45:58;;;;;;;2.63;1.92;;;17.80;67.70;;;;;;5032243;28;20025;-70
2021/10/23 09:49:01;;;;;;;4.03;2.42;;;17.90;68.20;;;;;;5033617;28;20532;-70
2021/10/23 09:51:28;;;;;;;;;;;18.00;67.80;;;;;;5034296;28;20029;-70
2021/10/23 09:54:14;;;;;;;3.45;2.30;;;18.10;66.80;;;;;;5033923;28;19928;-68
2021/10/23 09:56:52;;;;;;;3.47;2.10;;;18.20;67.30;;;;;;5033884;28;20100;-70
2021/10/23 09:59:29;;;;;;;5.68;2.30;;;18.20;67.10;;;;;;5041658;28;20521;-70
2021/10/23 10:01:57;;;;;;;11.23;2.30;;;18.20;67.60;;;;;;5053266;28;20508;-69
2021/10/23 10:04:25;;;;;;;3.58;2.17;;;18.30;67.90;;;;;;5044181;28;20022;-69
2021/10/23 10:06:52;;;;;;;3.92;1.95;;;18.30;66.30;;;;;;5015767;28;20046;-69
2021/10/23 10:09:19;;;;;;;3.72;2.10;;;18.40;66.20;;;;;;5012976;28;20140;-70
2021/10/23 10:11:49;;;;;;;2.63;1.92;;;18.40;66.30;;;;;;5013845;28;20026;-69
2021/10/23 10:14:20;;;;;;;6.07;2.05;;;18.40;66.70;;;;;;5013674;28;20025;-68
2021/10/23 10:16:50;;;;;;;3.78;2.35;;;18.50;65.70;;;;;;5013643;28;20026;-68
2021/10/23 10:19:19;;;;;;;2.30;1.60;;;18.50;65.50;;;;;;5013524;28;20034;-70
2021/10/23 10:21:45;;;;;;;3.03;1.50;;;18.60;65.70;;;;;;5013933;28;20118;-71
2021/10/23 10:24:16;;;;;;;2.55;1.35;;;18.60;65.10;;;;;;5013943;28;20022;-72
2021/10/23 10:27:00;;;;;;;2.58;1.23;;;18.60;65.00;;;;;;5013501;28;20038;-72
2021/10/23 10:29:45;;;;;;;4.53;1.25;;;18.70;64.70;;;;;;5010890;28;20111;-72
2021/10/23 10:32:25;;;;;;;2.85;0.80;;;18.70;65.00;;;;;;5010081;28;20029;-69
2021/10/23 10:43:00;;;;;;;1.00;0.63;;;18.70;60.50;;;;;;5013622;28;20066;-69
2021/10/23 10:45:30;;;;;;;1.48;0.60;;;18.70;59.90;;;;;;5013562;28;20045;-68
2021/10/23 10:48:23;;;;;;;0.60;0.50;;;18.70;60.20;;;;;;5011486;28;20053;-68
2021/10/23 10:50:50;;;;;;;;;;;18.70;59.10;;;;;;5011247;28;20026;-68
2021/10/23 10:53:22;;;;;;;1.95;0.47;;;18.80;59.60;;;;;;5010927;28;19916;-68
2021/10/23 10:55:49;;;;;;;1.67;0.43;;;18.80;58.50;;;;;;5010710;28;20037;-69
2021/10/23 10:58:18;;;;;;;2.35;0.40;;;18.80;57.00;;;;;;5010413;28;20014;-69
2021/10/23 11:00:46;;;;;;;6.75;1.02;;;18.80;56.20;;;;;;5012627;28;20088;-69
2021/10/23 11:03:55;;;;;;;5.35;1.58;;;18.80;57.60;;;;;;5013366;28;20494;-69
2021/10/23 11:06:35;;;;;;;0.60;0.40;;;18.80;56.80;;;;;;4991596;28;20027;-68
2021/10/23 11:11:44;;;;;;;0.60;0.60;;;18.80;56.20;;;;;;5006218;28;20478;-68
2021/10/23 11:14:19;;;;;;;3.03;0.60;;;18.80;56.20;;;;;;5011857;28;20034;-68
2021/10/23 11:16:58;;;;;;;1.00;0.70;;;18.80;55.60;;;;;;5012738;28;20057;-68
2021/10/23 11:19:43;;;;;;;1.00;0.50;;;18.80;55.60;;;;;;5012904;28;20110;-69
2021/10/23 11:22:19;;;;;;;2.38;0.60;;;18.90;55.60;;;;;;5017374;28;20037;-70
2021/10/23 11:24:57;;;;;;;2.83;0.65;;;18.90;55.10;;;;;;5016620;28;20041;-70
2021/10/23 11:27:23;;;;;;;2.78;0.60;;;18.80;55.40;;;;;;5016783;28;20030;-71
2021/10/23 11:30:08;;;;;;;6.95;0.70;;;18.80;55.80;;;;;;5016830;28;20057;-71
2021/10/23 11:32:35;;;;;;;0.75;0.50;;;18.80;56.00;;;;;;5016939;28;20418;-71
2021/10/23 11:35:04;;;;;;;3.30;0.70;;;18.90;55.90;;;;;;5017054;28;20037;-72
2021/10/23 11:37:31;;;;;;;3.38;0.75;;;18.90;55.80;;;;;;5016647;28;20498;-71
2021/10/23 11:40:14;;;;;;;1.30;0.60;;;18.90;55.40;;;;;;5016699;28;20475;-71
2021/10/23 11:42:46;;;;;;;1.02;0.73;;;18.90;55.30;;;;;;5016917;28;20121;-71
2021/10/23 11:45:19;;;;;;;1.13;0.68;;;18.90;54.80;;;;;;5016265;28;20418;-72
2021/10/23 11:47:45;;;;;;;5.72;0.77;;;18.80;55.10;;;;;;5016522;28;20038;-70
2021/10/23 11:50:31;;;;;;;1.77;0.70;;;18.80;55.20;;;;;;5016522;28;20026;-70
2021/10/23 11:53:10;;;;;;;1.52;0.70;;;18.80;54.60;;;;;;5015901;28;20034;-71
2021/10/23 11:55:42;;;;;;;10.20;0.82;;;18.80;54.90;;;;;;5016402;28;20026;-71
2021/10/23 11:58:10;;;;;;;4.40;0.73;;;18.80;55.00;;;;;;5016387;28;20121;-71
2021/10/23 12:00:45;;;;;;;5.28;0.70;;;18.80;55.00;;;;;;5016008;28;20037;-71
2021/10/23 12:03:14;;;;;;;1.50;0.70;;;18.80;55.60;;;;;;5016380;28;20026;-72
2021/10/23 12:05:46;;;;;;;1.25;0.60;;;18.80;55.50;;;;;;5016446;28;20022;-71
2021/10/23 12:08:18;;;;;;;1.95;0.88;;;18.90;55.50;;;;;;5016051;28;20028;-71
2021/10/23 12:11:10;;;;;;;1.80;0.70;;;18.80;54.80;;;;;;5016304;28;20156;-71
2021/10/23 12:13:53;;;;;;;3.95;0.63;;;18.90;55.40;;;;;;5016130;28;20105;-71
2021/10/23 12:16:46;;;;;;;2.17;0.68;;;18.90;55.00;;;;;;5015891;28;20025;-71
2021/10/23 12:19:22;;;;;;;1.63;0.60;;;18.90;54.10;;;;;;5016244;28;20022;-72
2021/10/23 12:22:05;;;;;;;1.70;0.65;;;18.90;54.40;;;;;;5016136;28;20496;-71
2021/10/23 12:24:44;;;;;;;1.17;0.55;;;18.90;54.50;;;;;;5015824;28;20029;-71
2021/10/23 12:27:29;;;;;;;1.02;0.60;;;18.80;54.80;;;;;;5015912;28;20437;-71
2021/10/23 12:30:07;;;;;;;4.47;1.00;;;18.90;53.90;;;;;;5016064;28;20026;-71
2021/10/23 12:32:38;;;;;;;3.05;0.98;;;18.90;53.60;;;;;;5015001;28;20385;-71
2021/10/23 12:35:25;;;;;;;1.90;0.68;;;18.90;53.40;;;;;;5015649;28;20105;-71
2021/10/23 12:37:57;;;;;;;1.60;0.60;;;18.80;53.70;;;;;;5015017;28;20038;-71
2021/10/23 12:40:35;;;;;;;1.85;0.80;;;18.80;53.80;;;;;;5015748;28;20425;-71
2021/10/23 12:43:06;;;;;;;1.58;0.63;;;18.80;54.30;;;;;;5015867;28;20537;-71
2021/10/23 12:45:43;;;;;;;2.30;0.63;;;18.80;53.70;;;;;;5015425;28;20087;-71
2021/10/23 12:48:11;;;;;;;2.92;0.77;;;18.80;53.10;;;;;;5015525;28;20469;-71
2021/10/23 12:50:38;;;;;;;1.67;0.90;;;18.80;53.30;;;;;;5015533;28;20072;-71
2021/10/23 12:53:05;;;;;;;1.98;0.80;;;18.80;52.70;;;;;;5015087;28;20028;-71
2021/10/23 12:55:31;;;;;;;3.75;0.68;;;18.70;53.10;;;;;;5015499;28;20072;-71
2021/10/23 12:57:57;;;;;;;1.90;1.02;;;18.60;53.20;;;;;;5015302;28;20022;-71
2021/10/23 13:00:23;;;;;;;3.50;1.10;;;18.60;53.20;;;;;;5015004;28;20042;-71